sensor_id;sensor_type;location;lat;lon;timestamp;temperature;humidity
15535;DHT22;7869;49.264;8.596;2022-07-29T00:01:00;21.80;89.10
15535;DHT22;7869;49.264;8.596;2022-07-29T00:03:26;21.80;93.90
15535;DHT22;7869;49.264;8.596;2022-07-29T00:05:52;21.80;99.90
15535;DHT22;7869;49.264;8.596;2022-07-29T00:08:18;21.90;99.90
15535;DHT22;7869;49.264;8.596;2022-07-29T00:10:44;21.90;99.90
15535;DHT22;7869;49.264;8.596;2022-07-29T00:13:10;21.90;99.90
15535;DHT22;7869;49.264;8.596;2022-07-29T00:15:35;21.90;99.90
15535;DHT22;7869;49.264;8.596;2022-07-29T00:18:01;21.90;99.90
15535;DHT22;7869;49.264;8.596;2022-07-29T00:20:26;21.80;99.90
15535;DHT22;7869;49.264;8.596;2022-07-29T00:22:52;21.80;99.90
15535;DHT22;7869;49.264;8.596;2022-07-29T00:25:18;21.80;99.90
15535;DHT22;7869;49.264;8.596;2022-07-29T00:27:44;21.70;99.90
15535;DHT22;7869;49.264;8.596;2022-07-29T00:30:11;21.70;99.90
15535;DHT22;7869;49.264;8.596;2022-07-29T00:32:37;21.60;99.90
15535;DHT22;7869;49.264;8.596;2022-07-29T00:35:03;21.60;99.90
15535;DHT22;7869;49.264;8.596;2022-07-29T00:37:47;21.50;99.90
15535;DHT22;7869;49.264;8.596;2022-07-29T00:40:13;21.50;99.90
15535;DHT22;7869;49.264;8.596;2022-07-29T00:42:43;21.40;99.90
15535;DHT22;7869;49.264;8.596;2022-07-29T00:45:09;21.40;99.90
15535;DHT22;7869;49.264;8.596;2022-07-29T00:47:35;21.40;99.90
15535;DHT22;7869;49.264;8.596;2022-07-29T00:50:01;21.30;99.90
15535;DHT22;7869;49.264;8.596;2022-07-29T00:52:26;21.30;99.90
15535;DHT22;7869;49.264;8.596;2022-07-29T00:54:52;21.30;99.90
15535;DHT22;7869;49.264;8.596;2022-07-29T00:57:18;21.40;99.90
15535;DHT22;7869;49.264;8.596;2022-07-29T00:59:43;21.40;99.90
15535;DHT22;7869;49.264;8.596;2022-07-29T01:02:09;21.40;99.90
15535;DHT22;7869;49.264;8.596;2022-07-29T01:04:35;21.40;99.90
15535;DHT22;7869;49.264;8.596;2022-07-29T01:07:04;21.40;99.90
15535;DHT22;7869;49.264;8.596;2022-07-29T01:09:31;21.40;99.90
15535;DHT22;7869;49.264;8.596;2022-07-29T01:11:58;21.40;99.90
15535;DHT22;7869;49.264;8.596;2022-07-29T01:14:25;21.40;99.90
15535;DHT22;7869;49.264;8.596;2022-07-29T01:17:14;21.40;99.90
15535;DHT22;7869;49.264;8.596;2022-07-29T01:22:26;21.30;99.90
15535;DHT22;7869;49.264;8.596;2022-07-29T01:30:47;21.30;1.00
15535;DHT22;7869;49.264;8.596;2022-07-29T01:33:17;21.20;1.00
15535;DHT22;7869;49.264;8.596;2022-07-29T01:36:07;21.20;1.00
15535;DHT22;7869;49.264;8.596;2022-07-29T01:38:35;21.10;1.00
15535;DHT22;7869;49.264;8.596;2022-07-29T01:41:06;21.10;1.00
15535;DHT22;7869;49.264;8.596;2022-07-29T01:46:11;21.00;1.00
15535;DHT22;7869;49.264;8.596;2022-07-29T01:48:54;21.00;1.00
15535;DHT22;7869;49.264;8.596;2022-07-29T01:51:48;20.90;1.00
15535;DHT22;7869;49.264;8.596;2022-07-29T01:54:26;20.90;1.00
15535;DHT22;7869;49.264;8.596;2022-07-29T01:56:53;20.90;1.00
15535;DHT22;7869;49.264;8.596;2022-07-29T01:59:21;20.90;1.00
15535;DHT22;7869;49.264;8.596;2022-07-29T02:01:49;20.80;1.00
15535;DHT22;7869;49.264;8.596;2022-07-29T02:04:16;20.80;37.00
15535;DHT22;7869;49.264;8.596;2022-07-29T02:06:44;20.80;48.90
15535;DHT22;7869;49.264;8.596;2022-07-29T02:09:12;20.80;99.90
15535;DHT22;7869;49.264;8.596;2022-07-29T02:11:39;20.70;99.90
15535;DHT22;7869;49.264;8.596;2022-07-29T02:14:07;20.70;99.90
15535;DHT22;7869;49.264;8.596;2022-07-29T02:16:35;20.70;99.90
15535;DHT22;7869;49.264;8.596;2022-07-29T02:19:02;20.70;99.90
15535;DHT22;7869;49.264;8.596;2022-07-29T02:21:30;20.60;99.90
15535;DHT22;7869;49.264;8.596;2022-07-29T02:23:59;20.60;99.90
15535;DHT22;7869;49.264;8.596;2022-07-29T02:26:26;20.60;99.90
15535;DHT22;7869;49.264;8.596;2022-07-29T02:28:56;20.50;1.00
15535;DHT22;7869;49.264;8.596;2022-07-29T02:31:25;20.50;1.00
15535;DHT22;7869;49.264;8.596;2022-07-29T02:33:52;20.40;1.00
15535;DHT22;7869;49.264;8.596;2022-07-29T02:36:21;20.40;1.00
15535;DHT22;7869;49.264;8.596;2022-07-29T02:38:48;20.40;1.00
15535;DHT22;7869;49.264;8.596;2022-07-29T02:41:23;20.40;1.00
15535;DHT22;7869;49.264;8.596;2022-07-29T02:43:55;20.40;1.00
15535;DHT22;7869;49.264;8.596;2022-07-29T02:46:33;20.40;1.00
15535;DHT22;7869;49.264;8.596;2022-07-29T02:49:10;20.40;1.00
15535;DHT22;7869;49.264;8.596;2022-07-29T02:51:53;20.30;18.70
15535;DHT22;7869;49.264;8.596;2022-07-29T02:54:30;20.30;99.90
15535;DHT22;7869;49.264;8.596;2022-07-29T02:56:59;20.30;99.90
15535;DHT22;7869;49.264;8.596;2022-07-29T02:59:27;20.20;99.90
15535;DHT22;7869;49.264;8.596;2022-07-29T03:01:57;20.20;99.90
15535;DHT22;7869;49.264;8.596;2022-07-29T03:04:25;20.10;99.90
15535;DHT22;7869;49.264;8.596;2022-07-29T03:06:53;20.10;1.00
15535;DHT22;7869;49.264;8.596;2022-07-29T03:09:20;20.10;1.00
15535;DHT22;7869;49.264;8.596;2022-07-29T03:11:47;20.10;99.90
15535;DHT22;7869;49.264;8.596;2022-07-29T03:14:13;20.00;99.90
15535;DHT22;7869;49.264;8.596;2022-07-29T03:16:39;20.00;1.00
15535;DHT22;7869;49.264;8.596;2022-07-29T03:19:05;20.00;1.00
15535;DHT22;7869;49.264;8.596;2022-07-29T03:21:31;20.00;1.00
15535;DHT22;7869;49.264;8.596;2022-07-29T03:23:56;20.00;1.00
15535;DHT22;7869;49.264;8.596;2022-07-29T03:26:22;20.00;1.00
15535;DHT22;7869;49.264;8.596;2022-07-29T03:28:48;19.90;99.90
15535;DHT22;7869;49.264;8.596;2022-07-29T03:31:13;19.90;99.90
15535;DHT22;7869;49.264;8.596;2022-07-29T03:33:39;19.90;99.90
15535;DHT22;7869;49.264;8.596;2022-07-29T03:36:05;19.90;99.90
15535;DHT22;7869;49.264;8.596;2022-07-29T03:38:33;19.90;99.90
15535;DHT22;7869;49.264;8.596;2022-07-29T03:41:05;19.90;99.90
15535;DHT22;7869;49.264;8.596;2022-07-29T03:43:34;19.80;99.90
15535;DHT22;7869;49.264;8.596;2022-07-29T03:46:02;19.80;99.90
15535;DHT22;7869;49.264;8.596;2022-07-29T03:48:32;19.80;99.90
15535;DHT22;7869;49.264;8.596;2022-07-29T03:50:58;19.80;99.90
15535;DHT22;7869;49.264;8.596;2022-07-29T03:53:24;19.80;99.90
15535;DHT22;7869;49.264;8.596;2022-07-29T03:55:53;19.70;99.90
15535;DHT22;7869;49.264;8.596;2022-07-29T03:58:20;19.70;99.90
15535;DHT22;7869;49.264;8.596;2022-07-29T04:00:46;19.60;99.90
15535;DHT22;7869;49.264;8.596;2022-07-29T04:03:12;19.70;99.90
15535;DHT22;7869;49.264;8.596;2022-07-29T04:05:38;19.70;99.90
15535;DHT22;7869;49.264;8.596;2022-07-29T04:08:04;19.60;99.90
15535;DHT22;7869;49.264;8.596;2022-07-29T04:10:30;19.60;99.90
15535;DHT22;7869;49.264;8.596;2022-07-29T04:12:55;19.60;99.90
15535;DHT22;7869;49.264;8.596;2022-07-29T04:15:21;19.60;99.90
15535;DHT22;7869;49.264;8.596;2022-07-29T04:17:47;19.60;99.90
15535;DHT22;7869;49.264;8.596;2022-07-29T04:20:12;19.60;99.90
15535;DHT22;7869;49.264;8.596;2022-07-29T04:22:39;19.60;99.90
15535;DHT22;7869;49.264;8.596;2022-07-29T04:25:06;19.50;99.90
15535;DHT22;7869;49.264;8.596;2022-07-29T04:27:31;19.50;99.90
15535;DHT22;7869;49.264;8.596;2022-07-29T04:29:57;19.50;99.90
15535;DHT22;7869;49.264;8.596;2022-07-29T04:32:23;19.60;99.90
15535;DHT22;7869;49.264;8.596;2022-07-29T04:34:49;19.50;99.90
15535;DHT22;7869;49.264;8.596;2022-07-29T04:37:14;19.50;99.90
15535;DHT22;7869;49.264;8.596;2022-07-29T04:39:40;19.40;99.90
15535;DHT22;7869;49.264;8.596;2022-07-29T04:42:05;19.40;99.90
15535;DHT22;7869;49.264;8.596;2022-07-29T04:44:31;19.50;99.90
15535;DHT22;7869;49.264;8.596;2022-07-29T04:46:57;19.50;99.90
15535;DHT22;7869;49.264;8.596;2022-07-29T04:49:23;19.60;99.90
15535;DHT22;7869;49.264;8.596;2022-07-29T04:51:48;19.70;99.90
15535;DHT22;7869;49.264;8.596;2022-07-29T04:54:14;19.70;99.90
15535;DHT22;7869;49.264;8.596;2022-07-29T04:56:39;19.80;99.90
15535;DHT22;7869;49.264;8.596;2022-07-29T04:59:05;19.90;99.90
15535;DHT22;7869;49.264;8.596;2022-07-29T05:01:31;19.90;99.90
15535;DHT22;7869;49.264;8.596;2022-07-29T05:03:56;20.00;99.90
15535;DHT22;7869;49.264;8.596;2022-07-29T05:06:22;20.00;99.90
15535;DHT22;7869;49.264;8.596;2022-07-29T05:08:47;20.10;99.90
15535;DHT22;7869;49.264;8.596;2022-07-29T05:11:13;20.20;99.90
15535;DHT22;7869;49.264;8.596;2022-07-29T05:13:39;20.30;99.90
15535;DHT22;7869;49.264;8.596;2022-07-29T05:16:05;20.40;99.90
15535;DHT22;7869;49.264;8.596;2022-07-29T05:18:30;20.40;99.90
15535;DHT22;7869;49.264;8.596;2022-07-29T05:20:56;20.50;99.90
15535;DHT22;7869;49.264;8.596;2022-07-29T05:23:22;20.60;99.90
15535;DHT22;7869;49.264;8.596;2022-07-29T05:25:48;20.80;99.90
15535;DHT22;7869;49.264;8.596;2022-07-29T05:28:14;20.90;99.90
15535;DHT22;7869;49.264;8.596;2022-07-29T05:30:39;20.90;99.90
15535;DHT22;7869;49.264;8.596;2022-07-29T05:33:05;21.00;99.90
15535;DHT22;7869;49.264;8.596;2022-07-29T05:35:30;21.10;99.90
15535;DHT22;7869;49.264;8.596;2022-07-29T05:37:56;21.20;99.90
15535;DHT22;7869;49.264;8.596;2022-07-29T05:40:21;21.20;99.90
15535;DHT22;7869;49.264;8.596;2022-07-29T05:42:47;21.30;99.90
15535;DHT22;7869;49.264;8.596;2022-07-29T05:45:12;21.40;99.90
15535;DHT22;7869;49.264;8.596;2022-07-29T05:47:38;21.40;99.90
15535;DHT22;7869;49.264;8.596;2022-07-29T05:50:04;21.50;99.90
15535;DHT22;7869;49.264;8.596;2022-07-29T05:52:29;21.60;99.90
15535;DHT22;7869;49.264;8.596;2022-07-29T05:54:55;21.80;99.90
15535;DHT22;7869;49.264;8.596;2022-07-29T05:57:23;21.70;99.90
15535;DHT22;7869;49.264;8.596;2022-07-29T05:59:50;21.80;99.90
15535;DHT22;7869;49.264;8.596;2022-07-29T06:02:16;21.80;99.90
15535;DHT22;7869;49.264;8.596;2022-07-29T06:04:43;21.90;99.90
15535;DHT22;7869;49.264;8.596;2022-07-29T06:07:09;22.00;99.90
15535;DHT22;7869;49.264;8.596;2022-07-29T06:09:34;22.00;99.90
15535;DHT22;7869;49.264;8.596;2022-07-29T06:12:01;22.00;99.90
15535;DHT22;7869;49.264;8.596;2022-07-29T06:14:26;22.00;99.90
15535;DHT22;7869;49.264;8.596;2022-07-29T06:16:53;22.10;99.90
15535;DHT22;7869;49.264;8.596;2022-07-29T06:19:19;22.10;99.90
15535;DHT22;7869;49.264;8.596;2022-07-29T06:21:45;22.30;99.90
15535;DHT22;7869;49.264;8.596;2022-07-29T06:24:12;22.50;99.90
15535;DHT22;7869;49.264;8.596;2022-07-29T06:26:41;22.60;99.90
15535;DHT22;7869;49.264;8.596;2022-07-29T06:29:08;22.70;99.90
15535;DHT22;7869;49.264;8.596;2022-07-29T06:31:36;22.90;99.90
15535;DHT22;7869;49.264;8.596;2022-07-29T06:34:01;23.00;99.90
15535;DHT22;7869;49.264;8.596;2022-07-29T06:36:27;23.10;99.90
15535;DHT22;7869;49.264;8.596;2022-07-29T06:38:52;23.00;99.90
15535;DHT22;7869;49.264;8.596;2022-07-29T06:41:18;23.10;99.90
15535;DHT22;7869;49.264;8.596;2022-07-29T06:43:44;23.20;99.90
15535;DHT22;7869;49.264;8.596;2022-07-29T06:46:14;23.20;99.90
15535;DHT22;7869;49.264;8.596;2022-07-29T06:48:41;23.10;99.90
15535;DHT22;7869;49.264;8.596;2022-07-29T06:51:08;23.10;99.90
15535;DHT22;7869;49.264;8.596;2022-07-29T06:53:34;23.20;99.90
15535;DHT22;7869;49.264;8.596;2022-07-29T06:56:03;23.40;99.90
15535;DHT22;7869;49.264;8.596;2022-07-29T06:58:29;23.50;99.90
15535;DHT22;7869;49.264;8.596;2022-07-29T07:00:56;23.60;99.90
15535;DHT22;7869;49.264;8.596;2022-07-29T07:03:24;23.50;99.90
15535;DHT22;7869;49.264;8.596;2022-07-29T07:05:49;23.60;99.90
15535;DHT22;7869;49.264;8.596;2022-07-29T07:08:15;23.40;99.90
15535;DHT22;7869;49.264;8.596;2022-07-29T07:10:44;23.40;99.90
15535;DHT22;7869;49.264;8.596;2022-07-29T07:13:10;23.50;99.90
15535;DHT22;7869;49.264;8.596;2022-07-29T07:15:36;23.50;99.90
15535;DHT22;7869;49.264;8.596;2022-07-29T07:18:03;23.60;99.90
15535;DHT22;7869;49.264;8.596;2022-07-29T07:20:29;23.60;99.90
15535;DHT22;7869;49.264;8.596;2022-07-29T07:22:54;23.70;99.90
15535;DHT22;7869;49.264;8.596;2022-07-29T07:25:20;23.80;99.90
15535;DHT22;7869;49.264;8.596;2022-07-29T07:27:46;23.90;99.90
15535;DHT22;7869;49.264;8.596;2022-07-29T07:30:12;24.00;99.90
15535;DHT22;7869;49.264;8.596;2022-07-29T07:32:38;24.20;99.90
15535;DHT22;7869;49.264;8.596;2022-07-29T07:35:06;24.40;99.90
15535;DHT22;7869;49.264;8.596;2022-07-29T07:37:32;24.80;99.90
15535;DHT22;7869;49.264;8.596;2022-07-29T07:39:58;25.20;99.90
15535;DHT22;7869;49.264;8.596;2022-07-29T07:42:24;25.40;99.90
15535;DHT22;7869;49.264;8.596;2022-07-29T07:44:50;25.60;99.90
15535;DHT22;7869;49.264;8.596;2022-07-29T07:47:16;25.60;99.90
15535;DHT22;7869;49.264;8.596;2022-07-29T07:49:50;25.40;99.90
15535;DHT22;7869;49.264;8.596;2022-07-29T07:52:17;24.90;99.90
15535;DHT22;7869;49.264;8.596;2022-07-29T07:54:43;24.50;99.90
15535;DHT22;7869;49.264;8.596;2022-07-29T07:57:10;24.40;99.90
15535;DHT22;7869;49.264;8.596;2022-07-29T07:59:36;24.40;99.90
15535;DHT22;7869;49.264;8.596;2022-07-29T08:02:02;24.60;99.90
15535;DHT22;7869;49.264;8.596;2022-07-29T08:04:27;24.90;99.90
15535;DHT22;7869;49.264;8.596;2022-07-29T08:06:53;25.20;99.90
15535;DHT22;7869;49.264;8.596;2022-07-29T08:09:22;25.20;99.90
15535;DHT22;7869;49.264;8.596;2022-07-29T08:11:48;25.40;99.90
15535;DHT22;7869;49.264;8.596;2022-07-29T08:14:14;25.40;99.90
15535;DHT22;7869;49.264;8.596;2022-07-29T08:16:40;25.40;99.90
15535;DHT22;7869;49.264;8.596;2022-07-29T08:19:06;25.40;99.90
15535;DHT22;7869;49.264;8.596;2022-07-29T08:21:32;25.40;99.90
15535;DHT22;7869;49.264;8.596;2022-07-29T08:23:57;25.50;99.90
15535;DHT22;7869;49.264;8.596;2022-07-29T08:26:42;25.60;99.90
15535;DHT22;7869;49.264;8.596;2022-07-29T08:29:08;25.50;99.90
15535;DHT22;7869;49.264;8.596;2022-07-29T08:31:35;25.20;99.90
15535;DHT22;7869;49.264;8.596;2022-07-29T08:34:00;25.00;99.90
15535;DHT22;7869;49.264;8.596;2022-07-29T08:36:27;25.00;99.90
15535;DHT22;7869;49.264;8.596;2022-07-29T08:38:53;25.10;99.90
15535;DHT22;7869;49.264;8.596;2022-07-29T08:41:19;25.20;99.90
15535;DHT22;7869;49.264;8.596;2022-07-29T08:43:46;25.40;99.90
15535;DHT22;7869;49.264;8.596;2022-07-29T08:46:11;25.70;99.90
15535;DHT22;7869;49.264;8.596;2022-07-29T08:48:38;25.70;99.90
15535;DHT22;7869;49.264;8.596;2022-07-29T08:51:07;25.60;99.90
15535;DHT22;7869;49.264;8.596;2022-07-29T08:53:33;25.50;99.90
15535;DHT22;7869;49.264;8.596;2022-07-29T08:55:59;25.80;99.90
15535;DHT22;7869;49.264;8.596;2022-07-29T08:58:27;26.30;99.90
15535;DHT22;7869;49.264;8.596;2022-07-29T09:00:56;26.40;99.90
15535;DHT22;7869;49.264;8.596;2022-07-29T09:03:30;26.40;99.90
15535;DHT22;7869;49.264;8.596;2022-07-29T09:05:56;26.40;99.90
15535;DHT22;7869;49.264;8.596;2022-07-29T09:08:21;26.20;99.90
15535;DHT22;7869;49.264;8.596;2022-07-29T09:10:48;26.20;99.90
15535;DHT22;7869;49.264;8.596;2022-07-29T09:13:14;26.10;99.90
15535;DHT22;7869;49.264;8.596;2022-07-29T09:15:40;25.90;99.90
15535;DHT22;7869;49.264;8.596;2022-07-29T09:18:05;25.80;99.90
15535;DHT22;7869;49.264;8.596;2022-07-29T09:20:31;25.80;99.90
15535;DHT22;7869;49.264;8.596;2022-07-29T09:23:15;25.50;99.90
15535;DHT22;7869;49.264;8.596;2022-07-29T09:25:41;25.40;99.90
15535;DHT22;7869;49.264;8.596;2022-07-29T09:28:14;25.50;99.90
15535;DHT22;7869;49.264;8.596;2022-07-29T09:30:55;25.70;99.90
15535;DHT22;7869;49.264;8.596;2022-07-29T09:33:22;25.90;99.90
15535;DHT22;7869;49.264;8.596;2022-07-29T09:36:04;26.10;99.90
15535;DHT22;7869;49.264;8.596;2022-07-29T09:38:31;26.20;99.90
15535;DHT22;7869;49.264;8.596;2022-07-29T09:40:59;26.40;99.90
15535;DHT22;7869;49.264;8.596;2022-07-29T09:43:25;26.60;99.90
15535;DHT22;7869;49.264;8.596;2022-07-29T09:45:50;26.70;99.90
15535;DHT22;7869;49.264;8.596;2022-07-29T09:50:44;26.70;99.90
15535;DHT22;7869;49.264;8.596;2022-07-29T09:53:11;26.70;99.90
15535;DHT22;7869;49.264;8.596;2022-07-29T09:55:46;26.80;99.90
15535;DHT22;7869;49.264;8.596;2022-07-29T09:58:17;26.90;99.90
15535;DHT22;7869;49.264;8.596;2022-07-29T10:00:43;26.90;99.90
15535;DHT22;7869;49.264;8.596;2022-07-29T10:03:09;26.70;99.90
15535;DHT22;7869;49.264;8.596;2022-07-29T10:05:35;26.70;99.90
15535;DHT22;7869;49.264;8.596;2022-07-29T10:08:01;26.70;99.90
15535;DHT22;7869;49.264;8.596;2022-07-29T10:10:35;26.80;99.90
15535;DHT22;7869;49.264;8.596;2022-07-29T10:15:31;27.10;99.90
15535;DHT22;7869;49.264;8.596;2022-07-29T10:17:58;27.30;99.90
15535;DHT22;7869;49.264;8.596;2022-07-29T10:20:24;27.30;99.90
15535;DHT22;7869;49.264;8.596;2022-07-29T10:22:51;27.30;99.90
15535;DHT22;7869;49.264;8.596;2022-07-29T10:25:18;27.30;99.90
15535;DHT22;7869;49.264;8.596;2022-07-29T10:27:44;27.30;99.90
15535;DHT22;7869;49.264;8.596;2022-07-29T10:30:11;27.50;99.90
15535;DHT22;7869;49.264;8.596;2022-07-29T10:35:44;27.80;99.90
15535;DHT22;7869;49.264;8.596;2022-07-29T10:41:10;28.00;99.90
15535;DHT22;7869;49.264;8.596;2022-07-29T10:46:36;28.00;99.90
15535;DHT22;7869;49.264;8.596;2022-07-29T10:49:09;28.10;99.90
15535;DHT22;7869;49.264;8.596;2022-07-29T10:51:54;28.30;99.90
15535;DHT22;7869;49.264;8.596;2022-07-29T10:54:37;28.40;99.90
15535;DHT22;7869;49.264;8.596;2022-07-29T10:59:48;28.40;99.90
15535;DHT22;7869;49.264;8.596;2022-07-29T11:07:35;28.40;99.90
15535;DHT22;7869;49.264;8.596;2022-07-29T11:15:09;28.30;99.90
15535;DHT22;7869;49.264;8.596;2022-07-29T11:23:29;28.80;99.90
15535;DHT22;7869;49.264;8.596;2022-07-29T11:26:16;28.90;99.90
15535;DHT22;7869;49.264;8.596;2022-07-29T11:29:02;29.00;99.90
15535;DHT22;7869;49.264;8.596;2022-07-29T11:34:15;29.10;99.90
15535;DHT22;7869;49.264;8.596;2022-07-29T11:47:30;28.90;99.90
15535;DHT22;7869;49.264;8.596;2022-07-29T11:49:57;28.90;99.50
15535;DHT22;7869;49.264;8.596;2022-07-29T11:52:30;28.70;99.90
15535;DHT22;7869;49.264;8.596;2022-07-29T11:54:57;28.90;99.90
15535;DHT22;7869;49.264;8.596;2022-07-29T11:57:25;29.00;99.90
15535;DHT22;7869;49.264;8.596;2022-07-29T11:59:50;29.00;99.90
15535;DHT22;7869;49.264;8.596;2022-07-29T12:02:16;28.80;99.40
15535;DHT22;7869;49.264;8.596;2022-07-29T12:04:51;28.80;98.30
15535;DHT22;7869;49.264;8.596;2022-07-29T12:07:17;28.80;99.10
15535;DHT22;7869;49.264;8.596;2022-07-29T12:09:52;28.80;99.90
15535;DHT22;7869;49.264;8.596;2022-07-29T12:12:19;28.90;99.10
15535;DHT22;7869;49.264;8.596;2022-07-29T12:14:45;29.10;99.40
15535;DHT22;7869;49.264;8.596;2022-07-29T12:17:33;29.10;98.90
15535;DHT22;7869;49.264;8.596;2022-07-29T12:20:02;29.20;99.10
15535;DHT22;7869;49.264;8.596;2022-07-29T12:22:30;29.30;98.70
15535;DHT22;7869;49.264;8.596;2022-07-29T12:25:02;29.20;98.40
15535;DHT22;7869;49.264;8.596;2022-07-29T12:27:28;29.20;98.40
15535;DHT22;7869;49.264;8.596;2022-07-29T12:30:00;29.40;97.50
15535;DHT22;7869;49.264;8.596;2022-07-29T12:32:52;29.60;97.00
15535;DHT22;7869;49.264;8.596;2022-07-29T12:35:18;29.40;97.10
15535;DHT22;7869;49.264;8.596;2022-07-29T12:37:46;29.30;96.30
15535;DHT22;7869;49.264;8.596;2022-07-29T12:40:17;29.40;95.60
15535;DHT22;7869;49.264;8.596;2022-07-29T12:43:35;29.50;95.00
15535;DHT22;7869;49.264;8.596;2022-07-29T12:45:55;29.70;95.10
15535;DHT22;7869;49.264;8.596;2022-07-29T12:48:37;29.80;95.40
15535;DHT22;7869;49.264;8.596;2022-07-29T12:51:04;29.70;95.50
15535;DHT22;7869;49.264;8.596;2022-07-29T12:53:31;29.70;94.60
15535;DHT22;7869;49.264;8.596;2022-07-29T12:55:58;29.40;95.00
15535;DHT22;7869;49.264;8.596;2022-07-29T13:01:09;29.10;95.60
15535;DHT22;7869;49.264;8.596;2022-07-29T13:03:56;29.10;95.80
15535;DHT22;7869;49.264;8.596;2022-07-29T13:11:41;30.10;95.20
15535;DHT22;7869;49.264;8.596;2022-07-29T13:14:08;30.00;94.80
15535;DHT22;7869;49.264;8.596;2022-07-29T13:16:35;29.80;94.50
15535;DHT22;7869;49.264;8.596;2022-07-29T13:19:09;29.60;94.40
15535;DHT22;7869;49.264;8.596;2022-07-29T13:21:36;29.50;94.90
15535;DHT22;7869;49.264;8.596;2022-07-29T13:24:03;29.40;94.90
15535;DHT22;7869;49.264;8.596;2022-07-29T13:26:29;29.40;94.90
15535;DHT22;7869;49.264;8.596;2022-07-29T13:28:55;29.50;95.00
15535;DHT22;7869;49.264;8.596;2022-07-29T13:31:20;29.50;95.90
15535;DHT22;7869;49.264;8.596;2022-07-29T13:33:47;29.40;96.10
15535;DHT22;7869;49.264;8.596;2022-07-29T13:36:13;29.30;95.90
15535;DHT22;7869;49.264;8.596;2022-07-29T13:38:38;29.30;95.80
15535;DHT22;7869;49.264;8.596;2022-07-29T13:41:04;29.50;95.70
15535;DHT22;7869;49.264;8.596;2022-07-29T13:43:30;29.60;95.70
15535;DHT22;7869;49.264;8.596;2022-07-29T13:45:55;29.60;95.50
15535;DHT22;7869;49.264;8.596;2022-07-29T13:48:21;29.70;95.70
15535;DHT22;7869;49.264;8.596;2022-07-29T13:50:47;29.90;95.00
15535;DHT22;7869;49.264;8.596;2022-07-29T13:53:13;29.80;95.20
15535;DHT22;7869;49.264;8.596;2022-07-29T13:55:39;29.70;94.60
15535;DHT22;7869;49.264;8.596;2022-07-29T13:58:04;29.80;93.40
15535;DHT22;7869;49.264;8.596;2022-07-29T14:00:30;29.90;93.00
15535;DHT22;7869;49.264;8.596;2022-07-29T14:02:56;30.00;93.50
15535;DHT22;7869;49.264;8.596;2022-07-29T14:05:22;29.90;93.40
15535;DHT22;7869;49.264;8.596;2022-07-29T14:07:47;29.80;93.40
15535;DHT22;7869;49.264;8.596;2022-07-29T14:10:13;29.60;93.50
15535;DHT22;7869;49.264;8.596;2022-07-29T14:12:39;29.80;93.50
15535;DHT22;7869;49.264;8.596;2022-07-29T14:15:07;29.70;92.80
15535;DHT22;7869;49.264;8.596;2022-07-29T14:17:33;29.90;92.60
15535;DHT22;7869;49.264;8.596;2022-07-29T14:19:59;29.90;91.30
15535;DHT22;7869;49.264;8.596;2022-07-29T14:22:24;29.90;91.80
15535;DHT22;7869;49.264;8.596;2022-07-29T14:24:50;29.60;92.30
15535;DHT22;7869;49.264;8.596;2022-07-29T14:27:16;29.40;91.50
15535;DHT22;7869;49.264;8.596;2022-07-29T14:29:41;29.30;91.40
15535;DHT22;7869;49.264;8.596;2022-07-29T14:32:08;29.20;91.30
15535;DHT22;7869;49.264;8.596;2022-07-29T14:34:36;29.20;91.30
15535;DHT22;7869;49.264;8.596;2022-07-29T14:37:02;29.30;91.10
15535;DHT22;7869;49.264;8.596;2022-07-29T14:39:30;29.40;91.00
15535;DHT22;7869;49.264;8.596;2022-07-29T14:41:56;29.60;90.40
15535;DHT22;7869;49.264;8.596;2022-07-29T14:44:22;29.70;90.30
15535;DHT22;7869;49.264;8.596;2022-07-29T14:46:47;29.70;90.20
15535;DHT22;7869;49.264;8.596;2022-07-29T14:49:13;29.80;89.20
15535;DHT22;7869;49.264;8.596;2022-07-29T14:51:38;29.80;88.40
15535;DHT22;7869;49.264;8.596;2022-07-29T14:54:04;29.90;88.30
15535;DHT22;7869;49.264;8.596;2022-07-29T14:56:29;29.80;86.30
15535;DHT22;7869;49.264;8.596;2022-07-29T14:58:56;29.90;86.50
15535;DHT22;7869;49.264;8.596;2022-07-29T15:01:23;30.30;86.30
15535;DHT22;7869;49.264;8.596;2022-07-29T15:03:48;30.50;85.20
15535;DHT22;7869;49.264;8.596;2022-07-29T15:06:14;30.70;85.50
15535;DHT22;7869;49.264;8.596;2022-07-29T15:08:39;30.70;83.30
15535;DHT22;7869;49.264;8.596;2022-07-29T15:11:05;30.80;83.70
15535;DHT22;7869;49.264;8.596;2022-07-29T15:13:31;30.70;82.60
15535;DHT22;7869;49.264;8.596;2022-07-29T15:15:56;30.70;83.80
15535;DHT22;7869;49.264;8.596;2022-07-29T15:18:22;31.30;81.20
15535;DHT22;7869;49.264;8.596;2022-07-29T15:20:47;31.70;81.30
15535;DHT22;7869;49.264;8.596;2022-07-29T15:23:13;31.90;78.20
15535;DHT22;7869;49.264;8.596;2022-07-29T15:25:39;31.90;78.50
15535;DHT22;7869;49.264;8.596;2022-07-29T15:28:05;31.90;77.50
15535;DHT22;7869;49.264;8.596;2022-07-29T15:30:33;31.90;76.60
15535;DHT22;7869;49.264;8.596;2022-07-29T15:33:01;32.00;77.90
15535;DHT22;7869;49.264;8.596;2022-07-29T15:35:27;32.20;75.30
15535;DHT22;7869;49.264;8.596;2022-07-29T15:37:52;31.60;75.20
15535;DHT22;7869;49.264;8.596;2022-07-29T15:40:18;31.50;75.70
15535;DHT22;7869;49.264;8.596;2022-07-29T15:42:43;31.60;75.20
15535;DHT22;7869;49.264;8.596;2022-07-29T15:45:09;31.80;75.40
15535;DHT22;7869;49.264;8.596;2022-07-29T15:47:35;32.50;73.50
15535;DHT22;7869;49.264;8.596;2022-07-29T15:50:01;32.80;71.70
15535;DHT22;7869;49.264;8.596;2022-07-29T15:52:27;32.80;70.30
15535;DHT22;7869;49.264;8.596;2022-07-29T15:54:55;32.70;71.40
15535;DHT22;7869;49.264;8.596;2022-07-29T15:57:21;33.10;69.60
15535;DHT22;7869;49.264;8.596;2022-07-29T15:59:46;33.10;69.10
15535;DHT22;7869;49.264;8.596;2022-07-29T16:02:12;32.60;69.60
15535;DHT22;7869;49.264;8.596;2022-07-29T16:04:37;32.80;69.40
15535;DHT22;7869;49.264;8.596;2022-07-29T16:07:03;32.80;68.00
15535;DHT22;7869;49.264;8.596;2022-07-29T16:09:29;32.70;67.70
15535;DHT22;7869;49.264;8.596;2022-07-29T16:11:54;32.40;68.20
15535;DHT22;7869;49.264;8.596;2022-07-29T16:14:21;31.80;67.40
15535;DHT22;7869;49.264;8.596;2022-07-29T16:16:46;31.60;68.20
15535;DHT22;7869;49.264;8.596;2022-07-29T16:19:12;31.20;67.70
15535;DHT22;7869;49.264;8.596;2022-07-29T16:21:38;31.20;68.30
15535;DHT22;7869;49.264;8.596;2022-07-29T16:24:05;31.30;68.20
15535;DHT22;7869;49.264;8.596;2022-07-29T16:26:31;31.20;67.90
15535;DHT22;7869;49.264;8.596;2022-07-29T16:28:57;30.90;67.80
15535;DHT22;7869;49.264;8.596;2022-07-29T16:31:24;30.70;68.80
15535;DHT22;7869;49.264;8.596;2022-07-29T16:33:51;31.00;69.40
15535;DHT22;7869;49.264;8.596;2022-07-29T16:36:17;31.20;67.70
15535;DHT22;7869;49.264;8.596;2022-07-29T16:38:43;32.10;66.90
15535;DHT22;7869;49.264;8.596;2022-07-29T16:41:08;32.80;64.70
15535;DHT22;7869;49.264;8.596;2022-07-29T16:43:34;33.30;64.20
15535;DHT22;7869;49.264;8.596;2022-07-29T16:46:00;33.70;1.00
15535;DHT22;7869;49.264;8.596;2022-07-29T16:48:25;33.30;1.00
15535;DHT22;7869;49.264;8.596;2022-07-29T16:50:51;33.70;1.00
15535;DHT22;7869;49.264;8.596;2022-07-29T16:53:17;34.30;1.00
15535;DHT22;7869;49.264;8.596;2022-07-29T16:55:43;35.20;1.00